Weather at Gmunden-Laakirchen Airfield

Public forecast

Using degrees Celsius for public forecast. Weather courtesy of forecast.io.

Closest aviation weather report (METAR) to Gmunden-Laakirchen Airfield

Report is more than 6 hours old.

Closest report is Linz-Hörsching Airport / Vogler Air Base, 21.2 nm (39.3 km) NE.

2024/06/24 06:20 (retrieved 1 day ago)

LOWL 240620Z AUTO 10007KT 9999 NCD 20/13 Q1020 NOSIG

Closest aviation forecast (TAF) to Gmunden-Laakirchen Airfield

Forecast is more than 12 hours old.

Closest forecast is Linz-Hörsching Airport / Vogler Air Base, 21.2 nm (39.3 km) NE.

2024/06/24 18:20 (retrieved 14 hours ago)

TAF LOWL 241715Z 2418/2518 09010KT CAVOK TX26/2516Z TN16/2504Z